Gridley, Kansas
Current Conditions -  °F | °C
As of 10:13 AM on Thursday 18 Dec 2014 (Local Time) from KEMP Reporting Station
Haze Haze  
Wind Chill: 23°   Ceiling: 400
Heat Index: 29°   Visibility: 1.5mi
Dew Point: 28°   Wind: 6mph
Humidity: 96%   Direction: 70°ENE
Pressure: 30.21"   Gusts: NA
Location:  38.1°N, 95.88°W
Report Text: KEMP 181613Z AUTO 07005KT 1 1/2SM BR OVC004 M02/M02 A3021 RMK AO2 T10171022
Loading
Personal Weather Stations






























Interactive Weather Map New forecast layout! Learn more

10-Day Weather Forecast

Advertisements
Track Severe Weather on mobile